EGTE

Exeter International Airport

Exeter, United Kingdom
METAR EGTE 190850Z VRB02KT 6000 NSC 07/07 Q1026
Observed Flight Rules
Oct-19 @ 08:50 UTC (15 minutes ago) Marginal Visual Flight Rules
Wind Visibility Clouds
Variable at 2 knots 6,003 meters
  • Clear skies
Temperatures Readings
Current 7°C / 45°F
Dewpoint 7°C / 45°F
Humidity 100%
Altimeter 30.3" Hg
Pressure 1026 hPa
Elevation 30
METAR EGTE 190850Z VRB02KT 6000 NSC 07/07 Q1026
Observed Flight Rules
Oct-19 @ 08:50 UTC
(15 minutes ago)
MVFR
Wind Visibility
Variable at 2 knots 6,003 meters
Clouds
  • Clear skies
Temperature Dewpoint
7°C / 45°F 7°C / 45°F
Humidity Altimeter Pressure
100% 30.3" Hg 1026 hPa